Terminal Aerodrome Forecast
Issued by NWS

Home | Current Version | Previous Version | Text Only | Print | Product List | Glossary On
Versions: 1 2 3 4 5 6 7 8 9 10 11 12 13 14 15 16
414
FTUS46 KSGX 210606 AAA
TAFSNA
TAF AMD
KSNA 210606Z 2106/2206 VRB04KT P6SM SCT015 OVC025
      TEMPO 2107/2111 5SM -DZ BKN015
     FM212000 21010KT P6SM BKN025
     FM220300 VRB05KT P6SM BKN018 OVC025=

USA.gov is the U.S. government's official web portal to all federal, state and local government web resources and services.